DEBBX EDRX-EDRC
Flight info
| Callsign | DEBBX |
|---|---|
| Flight time | 0h -9m |
| Altitude | 4000 |
| Route | DCT |
| Aircraft | DA40/L-SFG/C |
Departure
| Time | 2026-04-30 19:02 |
|---|---|
| Airport | Bexbach Glider Field (EDRX) |
Arrival
| Time | 2026-04-30 18:53 |
|---|---|
| Airport | Marpingen Glider Airfield (EDRC) |
| Time | Latitude | Longitude | Altitude | Speed | Heading |
|---|---|---|---|---|---|
| 2026-04-30 18:53 | 49.45308 | 7.03282 | 1136 ft | 0 kts | 78° |
| 2026-04-30 18:55 | 49.45309 | 7.03288 | 1164 ft | 1 kts | 74° |
| 2026-04-30 18:55 | 49.45336 | 7.03301 | 1164 ft | 5 kts | 7° |
| 2026-04-30 18:55 | 49.45370 | 7.03308 | 1164 ft | 5 kts | 9° |
| 2026-04-30 18:56 | 49.45384 | 7.03323 | 1163 ft | 0 kts | 97° |
| 2026-04-30 18:57 | 49.45384 | 7.03325 | 1163 ft | 0 kts | 96° |
| 2026-04-30 18:57 | 49.45383 | 7.03341 | 1164 ft | 1 kts | 98° |
| 2026-04-30 18:57 | 49.45382 | 7.03354 | 1172 ft | 2 kts | 99° |
| 2026-04-30 18:58 | 49.45378 | 7.03387 | 1172 ft | 2 kts | 100° |
| 2026-04-30 18:58 | 49.45375 | 7.03416 | 1173 ft | 2 kts | 100° |
| 2026-04-30 18:58 | 49.45371 | 7.03453 | 1173 ft | 4 kts | 99° |
| 2026-04-30 18:59 | 49.45360 | 7.03508 | 1172 ft | 2 kts | 153° |
| 2026-04-30 19:00 | 49.45334 | 7.03389 | 1171 ft | 5 kts | 266° |
| 2026-04-30 19:00 | 49.45346 | 7.03343 | 1173 ft | 5 kts | 323° |
| 2026-04-30 19:00 | 49.45380 | 7.03342 | 1164 ft | 1 kts | 87° |
| 2026-04-30 19:01 | 49.45378 | 7.03357 | 1172 ft | 3 kts | 98° |
| 2026-04-30 19:01 | 49.45376 | 7.03377 | 1172 ft | 2 kts | 99° |
| 2026-04-30 19:02 | 49.45366 | 7.03471 | 1172 ft | 3 kts | 101° |
| 2026-04-30 19:02 | 49.45303 | 7.03997 | 1183 ft | 58 kts | 97° |
| 2026-04-30 19:03 | 49.45754 | 7.04730 | 1457 ft | 102 kts | 332° |
| 2026-04-30 19:03 | 49.46757 | 7.03111 | 1649 ft | 112 kts | 303° |
| 2026-04-30 19:04 | 49.45799 | 7.02015 | 1654 ft | 84 kts | 162° |
| 2026-04-30 19:04 | 49.45405 | 7.03198 | 1243 ft | 58 kts | 100° |
| 2026-04-30 19:05 | 49.45295 | 7.03818 | 1170 ft | 1 kts | 157° |
| 2026-04-30 19:05 | 49.45292 | 7.03765 | 1168 ft | 6 kts | 293° |
| 2026-04-30 19:06 | 49.45306 | 7.03634 | 1171 ft | 8 kts | 281° |
| 2026-04-30 19:06 | 49.45319 | 7.03531 | 1172 ft | 9 kts | 278° |
| 2026-04-30 19:06 | 49.45366 | 7.03442 | 1172 ft | 2 kts | 41° |
| 2026-04-30 19:07 | 49.45368 | 7.03449 | 1170 ft | 0 kts | 100° |
| 2026-04-30 19:07 | 49.45367 | 7.03460 | 1171 ft | 0 kts | 96° |